createdAt,value
2022-11-28T00:01:36.617Z,1.62
2022-11-28T00:04:05.767Z,1.63
2022-11-28T00:06:41.390Z,1.61
2022-11-28T00:09:10.048Z,1.59
2022-11-28T00:11:42.411Z,1.56
2022-11-28T00:14:11.014Z,1.52
2022-11-28T00:16:39.170Z,1.51
2022-11-28T00:19:07.950Z,1.53
2022-11-28T00:21:35.821Z,1.52
2022-11-28T00:24:04.309Z,1.53
2022-11-28T00:26:38.314Z,1.52
2022-11-28T00:29:07.403Z,1.49
2022-11-28T00:31:42.695Z,1.48
2022-11-28T00:34:13.706Z,1.48
2022-11-28T00:36:44.850Z,1.46
2022-11-28T00:39:13.814Z,1.45
2022-11-28T00:41:42.548Z,1.47
2022-11-28T00:44:10.848Z,1.48
2022-11-28T00:46:38.742Z,1.48
2022-11-28T00:49:06.711Z,1.49
2022-11-28T00:51:35.467Z,1.49
2022-11-28T00:54:05.923Z,1.48
2022-11-28T00:56:39.599Z,1.45
2022-11-28T00:59:07.790Z,1.43
2022-11-28T01:01:44.755Z,1.43
2022-11-28T01:04:15.663Z,1.45
2022-11-28T01:06:46.548Z,1.46
2022-11-28T01:09:18.306Z,1.47
2022-11-28T01:11:49.250Z,1.47
2022-11-28T01:14:19.515Z,1.46
2022-11-28T01:16:47.631Z,1.45
2022-11-28T01:19:16.376Z,1.44
2022-11-28T01:21:44.853Z,1.44
2022-11-28T01:24:13.501Z,1.44
2022-11-28T01:26:42.892Z,1.45
2022-11-28T01:29:11.682Z,1.46
2022-11-28T01:31:41.046Z,1.46
2022-11-28T01:34:09.051Z,1.44
2022-11-28T01:36:36.912Z,1.42
2022-11-28T01:39:04.776Z,1.42
2022-11-28T01:41:32.884Z,1.42
2022-11-28T01:44:15.981Z,1.41
2022-11-28T01:46:44.473Z,1.42
2022-11-28T01:49:15.212Z,1.42
2022-11-28T01:51:48.782Z,1.42
2022-11-28T01:54:20.746Z,1.42
2022-11-28T01:56:54.550Z,1.41
2022-11-28T01:59:24.463Z,1.41
2022-11-28T02:01:52.472Z,1.42
2022-11-28T02:04:20.610Z,1.43
2022-11-28T02:06:48.578Z,1.44
2022-11-28T02:09:17.361Z,1.44
2022-11-28T02:11:51.263Z,1.44
2022-11-28T02:14:34.183Z,1.43
2022-11-28T02:17:20.686Z,1.41
2022-11-28T02:20:22.754Z,1.40
2022-11-28T02:23:19.598Z,1.40
2022-11-28T02:26:29.037Z,1.38
2022-11-28T02:29:12.914Z,1.37
2022-11-28T02:32:22.317Z,1.36
2022-11-28T02:35:00.125Z,1.36
2022-11-28T02:37:50.512Z,1.37
2022-11-28T02:40:26.874Z,1.38
2022-11-28T02:43:06.927Z,1.38
2022-11-28T02:45:35.001Z,1.37
2022-11-28T02:48:12.954Z,1.37
2022-11-28T02:50:51.411Z,1.37
2022-11-28T02:53:23.884Z,1.38
2022-11-28T02:55:52.984Z,1.37
2022-11-28T02:58:20.845Z,1.36
2022-11-28T03:00:51.231Z,1.35
2022-11-28T03:03:28.496Z,1.35
2022-11-28T03:06:07.277Z,1.33
2022-11-28T03:09:00.637Z,1.32
2022-11-28T03:11:59.123Z,1.31
2022-11-28T03:14:32.825Z,1.30
2022-11-28T03:17:15.844Z,1.31
2022-11-28T03:20:01.673Z,1.30
2022-11-28T03:22:35.332Z,1.29
2022-11-28T03:25:12.721Z,1.28
2022-11-28T03:27:47.961Z,1.26
2022-11-28T03:30:27.396Z,1.23
2022-11-28T03:32:58.150Z,1.23
2022-11-28T03:35:31.159Z,1.21
2022-11-28T03:38:06.151Z,1.19
2022-11-28T03:40:42.823Z,1.17
2022-11-28T03:43:14.990Z,1.16
2022-11-28T03:45:49.305Z,1.13
2022-11-28T03:48:26.594Z,1.10
2022-11-28T03:51:02.866Z,1.09
2022-11-28T03:53:50.991Z,1.04
2022-11-28T03:56:26.024Z,0.98
2022-11-28T03:59:26.767Z,0.91
2022-11-28T04:02:33.063Z,0.82
2022-11-28T04:05:09.903Z,0.72
2022-11-28T04:08:16.685Z,0.66
2022-11-28T04:10:59.716Z,0.59
2022-11-28T04:13:41.837Z,0.54
2022-11-28T04:16:20.173Z,0.47
2022-11-28T04:19:13.409Z,0.43
2022-11-28T04:21:51.068Z,0.38
2022-11-28T04:24:25.594Z,0.34
2022-11-28T04:27:00.727Z,0.31
2022-11-28T04:29:34.430Z,0.29
2022-11-28T04:32:03.783Z,0.25
2022-11-28T04:34:34.973Z,0.24
2022-11-28T04:37:09.724Z,0.26
2022-11-28T04:39:41.969Z,0.28
2022-11-28T04:42:23.865Z,0.29
2022-11-28T04:45:02.939Z,0.29
2022-11-28T04:47:31.027Z,0.29
2022-11-28T04:49:59.340Z,0.28
2022-11-28T04:52:29.968Z,0.27
2022-11-28T04:55:05.207Z,0.28
2022-11-28T04:57:37.994Z,0.28
2022-11-28T05:00:11.173Z,0.29
2022-11-28T05:02:42.016Z,0.29
2022-11-28T05:05:13.877Z,0.28
2022-11-28T05:07:42.026Z,0.26
2022-11-28T05:10:12.676Z,0.24
2022-11-28T05:12:40.848Z,0.25
2022-11-28T05:15:09.845Z,0.26
2022-11-28T05:17:42.133Z,0.28
2022-11-28T05:20:11.216Z,0.27
2022-11-28T05:22:39.173Z,0.28
2022-11-28T05:25:07.599Z,0.29
2022-11-28T05:27:35.929Z,0.30
2022-11-28T05:30:06.299Z,0.31
2022-11-28T05:32:34.321Z,0.30
2022-11-28T05:35:02.741Z,0.31
2022-11-28T05:37:30.670Z,0.32
2022-11-28T05:39:58.737Z,0.32
2022-11-28T05:42:28.653Z,0.34
2022-11-28T05:44:56.524Z,0.35
2022-11-28T05:47:25.409Z,0.35
2022-11-28T05:49:53.169Z,0.37
2022-11-28T05:52:21.040Z,0.37
2022-11-28T05:54:48.846Z,0.40
2022-11-28T05:57:16.665Z,0.41
2022-11-28T05:59:44.757Z,0.42
2022-11-28T06:02:13.063Z,0.44
2022-11-28T06:04:42.179Z,0.46
2022-11-28T06:07:10.104Z,0.47
2022-11-28T06:09:38.042Z,0.49
2022-11-28T06:12:06.445Z,0.52
2022-11-28T06:14:34.418Z,0.54
2022-11-28T06:17:02.398Z,0.56
2022-11-28T06:19:30.319Z,0.58
2022-11-28T06:21:58.198Z,0.59
2022-11-28T06:24:26.268Z,0.60
2022-11-28T06:26:55.250Z,0.61
2022-11-28T06:29:23.316Z,0.62
2022-11-28T06:31:51.215Z,0.63
2022-11-28T06:34:19.150Z,0.64
2022-11-28T06:36:46.969Z,0.65
2022-11-28T06:39:16.831Z,0.66
2022-11-28T06:41:45.267Z,0.67
2022-11-28T06:44:14.882Z,0.67
2022-11-28T06:46:43.907Z,0.68
2022-11-28T06:49:15.324Z,0.70
2022-11-28T06:51:43.630Z,0.72
2022-11-28T06:54:12.066Z,0.73
2022-11-28T06:56:41.415Z,0.74
2022-11-28T06:59:12.026Z,0.76
2022-11-28T07:01:39.970Z,0.79
2022-11-28T07:04:07.876Z,0.82
2022-11-28T07:06:35.739Z,0.84
2022-11-28T07:09:04.461Z,0.86
2022-11-28T07:11:32.851Z,0.87
2022-11-28T07:14:02.417Z,0.90
2022-11-28T07:16:33.339Z,0.93
2022-11-28T07:19:01.351Z,0.93
2022-11-28T07:21:29.920Z,0.94
2022-11-28T07:23:59.530Z,0.96
2022-11-28T07:26:27.834Z,0.98
2022-11-28T07:28:58.386Z,1.00
2022-11-28T07:31:31.768Z,1.03
2022-11-28T07:34:03.691Z,1.06
2022-11-28T07:36:32.533Z,1.09
2022-11-28T07:39:02.673Z,1.12
2022-11-28T07:41:31.013Z,1.15
2022-11-28T07:44:01.847Z,1.19
2022-11-28T07:46:31.629Z,1.22
2022-11-28T07:49:00.592Z,1.25
2022-11-28T07:51:31.830Z,1.29
2022-11-28T07:54:01.662Z,1.32
2022-11-28T07:56:57.110Z,1.36
2022-11-28T07:59:20.219Z,1.39
2022-11-28T08:01:48.971Z,1.43
2022-11-28T08:04:16.996Z,1.46
2022-11-28T08:06:45.138Z,1.50
2022-11-28T08:09:13.003Z,1.56
2022-11-28T08:11:41.835Z,1.61
2022-11-28T08:14:09.974Z,1.65
2022-11-28T08:16:41.418Z,1.69
2022-11-28T08:19:09.482Z,1.72
2022-11-28T08:21:38.167Z,1.76
2022-11-28T08:24:08.174Z,1.79
2022-11-28T08:26:37.492Z,1.84
2022-11-28T08:29:05.551Z,1.86
2022-11-28T08:31:36.695Z,1.92
2022-11-28T08:34:10.399Z,1.97
2022-11-28T08:36:39.315Z,2.01
2022-11-28T08:39:24.356Z,2.07
2022-11-28T08:41:57.450Z,2.11
2022-11-28T08:44:27.256Z,2.14
2022-11-28T08:46:55.357Z,2.18
2022-11-28T08:49:23.290Z,2.22
2022-11-28T08:51:51.161Z,2.24
2022-11-28T08:54:19.128Z,2.28
2022-11-28T08:56:50.031Z,2.34
2022-11-28T08:59:18.132Z,2.39
2022-11-28T09:01:46.296Z,2.46
2022-11-28T09:04:14.643Z,2.52
2022-11-28T09:06:42.667Z,2.58
2022-11-28T09:09:10.718Z,2.63
2022-11-28T09:11:39.046Z,2.68
2022-11-28T09:14:07.677Z,2.72
2022-11-28T09:16:35.707Z,2.76
2022-11-28T09:19:04.128Z,2.81
2022-11-28T09:21:32.001Z,2.84
2022-11-28T09:24:00.080Z,2.89
2022-11-28T09:26:28.032Z,2.94
2022-11-28T09:28:56.109Z,2.96
2022-11-28T09:31:24.505Z,2.99
2022-11-28T09:33:52.533Z,3.01
2022-11-28T09:36:22.678Z,3.02
2022-11-28T09:38:51.253Z,3.02
2022-11-28T09:41:50.793Z,3.02
2022-11-28T09:44:31.148Z,3.01
2022-11-28T09:47:09.225Z,3.01
2022-11-28T09:49:41.586Z,3.03
2022-11-28T09:52:26.840Z,3.04
2022-11-28T09:55:11.115Z,3.04
2022-11-28T09:57:49.750Z,3.09
2022-11-28T10:00:22.931Z,3.11
2022-11-28T10:03:12.223Z,3.11
2022-11-28T10:05:54.908Z,3.12
2022-11-28T10:09:07.934Z,3.13
2022-11-28T10:11:38.873Z,3.14
2022-11-28T10:14:59.675Z,3.16
2022-11-28T10:17:27.541Z,3.18
2022-11-28T10:20:31.097Z,3.22
2022-11-28T10:23:13.549Z,3.25
2022-11-28T10:25:51.144Z,3.27
2022-11-28T10:28:33.446Z,3.29
2022-11-28T10:31:15.869Z,3.30
2022-11-28T10:33:53.978Z,3.33
2022-11-28T10:36:27.580Z,3.37
2022-11-28T10:38:55.526Z,3.39
2022-11-28T10:41:40.618Z,3.41
2022-11-28T10:44:35.290Z,3.40
2022-11-28T10:47:06.707Z,3.41
2022-11-28T10:49:46.066Z,3.42
2022-11-28T10:52:46.502Z,3.42
2022-11-28T10:55:45.095Z,3.41
2022-11-28T10:58:22.064Z,3.39
2022-11-28T11:00:57.703Z,3.41
2022-11-28T11:03:30.086Z,3.41
2022-11-28T11:05:57.962Z,3.39
2022-11-28T11:08:29.200Z,3.38
2022-11-28T11:11:06.963Z,3.37
2022-11-28T11:13:55.732Z,3.36
2022-11-28T11:16:24.108Z,3.33
2022-11-28T11:18:55.150Z,3.34
2022-11-28T11:21:28.010Z,3.37
2022-11-28T11:24:21.805Z,3.40
2022-11-28T11:26:50.173Z,3.42
2022-11-28T11:29:37.028Z,3.41
2022-11-28T11:32:16.862Z,3.39
2022-11-28T11:34:46.873Z,3.38
2022-11-28T11:37:33.905Z,3.36
2022-11-28T11:40:03.632Z,3.34
2022-11-28T11:42:33.286Z,3.31
2022-11-28T11:45:27.538Z,3.31
2022-11-28T11:47:55.867Z,3.29
2022-11-28T11:50:27.292Z,3.29
2022-11-28T11:53:10.639Z,3.29
2022-11-28T11:55:51.514Z,3.27
2022-11-28T11:58:23.782Z,3.27
2022-11-28T12:00:56.459Z,3.24
2022-11-28T12:03:45.684Z,3.21
2022-11-28T12:06:21.392Z,3.20
2022-11-28T12:08:54.936Z,3.21
2022-11-28T12:11:30.010Z,3.19
2022-11-28T12:14:16.234Z,3.18
2022-11-28T12:17:25.539Z,3.16
2022-11-28T12:20:06.415Z,3.14
2022-11-28T12:23:00.800Z,3.13
2022-11-28T12:25:47.407Z,3.11
2022-11-28T12:28:21.104Z,3.10
2022-11-28T12:30:52.014Z,3.07
2022-11-28T12:33:39.368Z,3.05
2022-11-28T12:36:12.083Z,3.06
2022-11-28T12:38:47.791Z,3.05
2022-11-28T12:41:18.853Z,3.07
2022-11-28T12:44:28.850Z,3.07
2022-11-28T12:47:17.445Z,3.06
2022-11-28T12:49:57.506Z,3.05
2022-11-28T12:53:06.486Z,3.03
2022-11-28T12:55:46.079Z,2.99
2022-11-28T12:58:51.505Z,2.97
2022-11-28T13:01:38.300Z,2.94
2022-11-28T13:04:42.695Z,2.93
2022-11-28T13:07:15.700Z,2.88
2022-11-28T13:10:13.184Z,2.85
2022-11-28T13:12:45.914Z,2.83
2022-11-28T13:15:18.539Z,2.84
2022-11-28T13:17:52.238Z,2.84
2022-11-28T13:20:43.075Z,2.84
2022-11-28T13:23:20.998Z,2.82
2022-11-28T13:26:14.633Z,2.81
2022-11-28T13:28:48.531Z,2.79
2022-11-28T13:31:33.188Z,2.78
2022-11-28T13:34:01.558Z,2.76
2022-11-28T13:39:40.281Z,2.72
2022-11-28T13:48:57.438Z,2.68
2022-11-28T13:51:31.606Z,2.67
2022-11-28T13:54:42.007Z,2.67
2022-11-28T13:57:26.389Z,2.65
2022-11-28T14:00:25.079Z,2.64
2022-11-28T14:03:00.696Z,2.62
2022-11-28T14:05:41.709Z,2.61
2022-11-28T14:08:28.180Z,2.59
2022-11-28T14:11:27.454Z,2.58
2022-11-28T14:14:43.625Z,2.56
2022-11-28T14:17:11.890Z,2.51
2022-11-28T14:19:59.296Z,2.49
2022-11-28T14:23:01.667Z,2.49
2022-11-28T14:25:39.673Z,2.49
2022-11-28T14:28:27.501Z,2.49
2022-11-28T14:31:12.488Z,2.51
2022-11-28T14:33:44.231Z,2.49
2022-11-28T14:36:23.977Z,2.49
2022-11-28T14:39:12.227Z,2.48
2022-11-28T14:42:05.178Z,2.47
2022-11-28T14:44:52.614Z,2.46
2022-11-28T14:47:32.046Z,2.45
2022-11-28T14:50:05.708Z,2.43
2022-11-28T14:52:39.446Z,2.42
2022-11-28T14:55:08.020Z,2.43
2022-11-28T14:57:38.973Z,2.42
2022-11-28T15:00:28.528Z,2.42
2022-11-28T15:03:40.833Z,2.41
2022-11-28T15:06:25.295Z,2.39
2022-11-28T15:09:08.721Z,2.39
2022-11-28T15:11:46.722Z,2.38
2022-11-28T15:14:24.929Z,2.37
2022-11-28T15:16:57.813Z,2.36
2022-11-28T15:19:44.237Z,2.36
2022-11-28T15:22:41.584Z,2.35
2022-11-28T15:25:18.754Z,2.32
2022-11-28T15:27:46.946Z,2.31
2022-11-28T15:30:18.096Z,2.31
2022-11-28T15:32:47.021Z,2.28
2022-11-28T15:35:18.531Z,2.28
2022-11-28T15:37:50.755Z,2.29
2022-11-28T15:40:31.485Z,2.29
2022-11-28T15:43:00.572Z,2.30
2022-11-28T15:45:32.408Z,2.31
2022-11-28T15:48:00.379Z,2.31
2022-11-28T15:50:31.106Z,2.30
2022-11-28T15:53:16.888Z,2.29
2022-11-28T15:55:45.489Z,2.29
2022-11-28T15:58:20.605Z,2.29
2022-11-28T16:00:55.256Z,2.29
2022-11-28T16:03:26.677Z,2.28
2022-11-28T16:05:56.188Z,2.29
2022-11-28T16:08:32.566Z,2.28
2022-11-28T16:11:03.695Z,2.28
2022-11-28T16:13:33.639Z,2.27
2022-11-28T16:16:04.363Z,2.26
2022-11-28T16:18:32.719Z,2.25
2022-11-28T16:21:02.012Z,2.24
2022-11-28T16:23:35.900Z,2.23
2022-11-28T16:26:20.681Z,2.23
2022-11-28T16:29:11.693Z,2.24
2022-11-28T16:31:40.058Z,2.23
2022-11-28T16:34:13.112Z,2.22
2022-11-28T16:36:45.859Z,2.21
2022-11-28T16:39:17.910Z,2.22
2022-11-28T16:41:54.984Z,2.23
2022-11-28T16:44:24.995Z,2.23
2022-11-28T16:46:58.428Z,2.23
2022-11-28T16:49:38.646Z,2.23
2022-11-28T16:52:21.670Z,2.21
2022-11-28T16:54:59.502Z,2.20
2022-11-28T16:57:45.696Z,2.20
2022-11-28T17:00:13.834Z,2.21
2022-11-28T17:02:41.697Z,2.19
2022-11-28T17:05:09.972Z,2.18
2022-11-28T17:07:38.632Z,2.18
2022-11-28T17:10:07.420Z,2.15
2022-11-28T17:12:38.997Z,2.14
2022-11-28T17:15:10.689Z,2.14
2022-11-28T17:17:38.622Z,2.10
2022-11-28T17:20:07.509Z,2.12
2022-11-28T17:22:41.205Z,2.12
2022-11-28T17:25:19.214Z,2.12
2022-11-28T17:27:50.462Z,2.11
2022-11-28T17:30:19.710Z,2.10
2022-11-28T17:32:48.152Z,2.09
2022-11-28T17:35:23.479Z,2.07
2022-11-28T17:37:51.547Z,2.07
2022-11-28T17:40:34.671Z,2.08
2022-11-28T17:43:03.692Z,2.07
2022-11-28T17:45:35.186Z,2.06
2022-11-28T17:48:03.185Z,2.06
2022-11-28T17:50:31.182Z,2.04
2022-11-28T17:52:59.222Z,2.04
2022-11-28T17:55:27.087Z,2.04
2022-11-28T17:57:54.958Z,2.04
2022-11-28T18:00:23.178Z,2.02
2022-11-28T18:02:51.120Z,2.00
2022-11-28T18:05:19.123Z,2.00
2022-11-28T18:07:47.135Z,2.01
2022-11-28T18:10:15.304Z,2.01
2022-11-28T18:12:43.219Z,2.01
2022-11-28T18:15:11.176Z,2.03
2022-11-28T18:17:39.005Z,2.03
2022-11-28T18:20:07.838Z,2.04
2022-11-28T18:22:35.617Z,2.02
2022-11-28T18:25:03.594Z,2.00
2022-11-28T18:27:31.427Z,2.00
2022-11-28T18:29:59.275Z,1.99
2022-11-28T18:32:27.329Z,1.97
2022-11-28T18:34:55.291Z,1.97
2022-11-28T18:37:23.209Z,1.96
2022-11-28T18:39:51.252Z,1.96
2022-11-28T18:42:19.344Z,1.93
2022-11-28T18:44:47.924Z,1.91
2022-11-28T18:47:17.349Z,1.91
2022-11-28T18:49:45.427Z,1.89
2022-11-28T18:52:13.632Z,1.88
2022-11-28T18:54:41.765Z,1.85
2022-11-28T18:57:09.756Z,1.85
2022-11-28T18:59:37.701Z,1.82
2022-11-28T19:02:05.902Z,1.79
2022-11-28T19:04:33.844Z,1.77
2022-11-28T19:07:02.633Z,1.74
2022-11-28T19:09:35.633Z,1.73
2022-11-28T19:12:04.878Z,1.71
2022-11-28T19:14:32.887Z,1.70
2022-11-28T19:17:02.291Z,1.68
2022-11-28T19:19:30.890Z,1.65
2022-11-28T19:21:58.734Z,1.62
2022-11-28T19:24:26.702Z,1.60
2022-11-28T19:26:54.568Z,1.58
2022-11-28T19:29:22.752Z,1.55
2022-11-28T19:31:50.773Z,1.51
2022-11-28T19:34:19.342Z,1.48
2022-11-28T19:36:50.129Z,1.44
2022-11-28T19:39:19.420Z,1.43
2022-11-28T19:41:47.612Z,1.42
2022-11-28T19:44:15.768Z,1.39
2022-11-28T19:46:44.396Z,1.37
2022-11-28T19:49:21.641Z,1.36
2022-11-28T19:51:50.716Z,1.33
2022-11-28T19:54:20.634Z,1.31
2022-11-28T19:56:49.448Z,1.28
2022-11-28T19:59:17.649Z,1.24
2022-11-28T20:01:49.055Z,1.22
2022-11-28T20:04:17.035Z,1.22
2022-11-28T20:06:44.946Z,1.22
2022-11-28T20:09:14.107Z,1.21
2022-11-28T20:11:43.222Z,1.20
2022-11-28T20:14:14.542Z,1.19
2022-11-28T20:16:43.720Z,1.19
2022-11-28T20:19:14.316Z,1.18
2022-11-28T20:21:42.223Z,1.18
2022-11-28T20:24:10.906Z,1.19
2022-11-28T20:26:42.668Z,1.20
2022-11-28T20:29:14.218Z,1.20
2022-11-28T20:31:45.716Z,1.20
2022-11-28T20:34:14.938Z,1.17
2022-11-28T20:36:43.851Z,1.13
2022-11-28T20:39:12.435Z,1.11
2022-11-28T20:41:40.332Z,1.10
2022-11-28T20:44:08.677Z,1.08
2022-11-28T20:46:36.850Z,1.05
2022-11-28T20:49:06.973Z,1.00
2022-11-28T20:51:35.961Z,0.96
2022-11-28T20:54:06.183Z,0.94
2022-11-28T20:57:05.220Z,0.92
2022-11-28T20:59:27.308Z,0.91
2022-11-28T21:01:55.375Z,0.89
2022-11-28T21:04:23.361Z,0.86
2022-11-28T21:06:51.518Z,0.85
2022-11-28T21:09:20.634Z,0.84
2022-11-28T21:11:58.433Z,0.83
2022-11-28T21:14:28.940Z,0.82
2022-11-28T21:16:58.652Z,0.80
2022-11-28T21:19:27.332Z,0.80
2022-11-28T21:21:55.411Z,0.78
2022-11-28T21:24:23.477Z,0.78
2022-11-28T21:26:54.307Z,0.78
2022-11-28T21:29:24.637Z,0.77
2022-11-28T21:31:53.413Z,0.76
2022-11-28T21:34:22.528Z,0.73
2022-11-28T21:36:50.648Z,0.73
2022-11-28T21:39:20.467Z,0.72
2022-11-28T21:41:48.885Z,0.73
2022-11-28T21:44:17.333Z,0.74
2022-11-28T21:46:45.157Z,0.76
2022-11-28T21:49:12.960Z,0.76
2022-11-28T21:51:41.131Z,0.79
2022-11-28T21:54:10.867Z,0.81
2022-11-28T21:56:39.238Z,0.82
2022-11-28T21:59:07.199Z,0.82
2022-11-28T22:01:35.052Z,0.81
2022-11-28T22:04:03.359Z,0.80
2022-11-28T22:06:31.965Z,0.81
2022-11-28T22:09:08.314Z,0.82
2022-11-28T22:11:37.439Z,0.83
2022-11-28T22:14:05.692Z,0.84
2022-11-28T22:16:33.704Z,0.84
2022-11-28T22:19:01.858Z,0.83
2022-11-28T22:24:18.149Z,0.81
2022-11-28T22:26:46.101Z,0.80
2022-11-28T22:29:14.625Z,0.79
2022-11-28T22:31:42.491Z,0.80
2022-11-28T22:34:10.710Z,0.80
2022-11-28T22:36:38.987Z,0.80
2022-11-28T22:39:06.850Z,0.79
2022-11-28T22:41:34.668Z,0.76
2022-11-28T22:44:04.120Z,0.73
2022-11-28T22:46:33.017Z,0.70
2022-11-28T22:49:01.745Z,0.70
2022-11-28T22:51:30.613Z,0.70
2022-11-28T22:54:01.340Z,0.72
2022-11-28T22:56:32.054Z,0.69
2022-11-28T22:59:00.834Z,0.68
2022-11-28T23:01:30.969Z,0.65
2022-11-28T23:03:59.601Z,0.62
2022-11-28T23:06:30.471Z,0.62
2022-11-28T23:09:00.190Z,0.60
2022-11-28T23:11:30.524Z,0.60
2022-11-28T23:13:58.885Z,0.58
2022-11-28T23:16:30.074Z,0.58
2022-11-28T23:19:01.373Z,0.57
2022-11-28T23:21:32.011Z,0.56
2022-11-28T23:24:00.081Z,0.56
2022-11-28T23:26:30.603Z,0.56
2022-11-28T23:29:00.744Z,0.56
2022-11-28T23:31:31.731Z,0.55
2022-11-28T23:34:00.548Z,0.54
2022-11-28T23:36:29.747Z,0.54
2022-11-28T23:39:00.746Z,0.54
2022-11-28T23:41:29.831Z,0.55
2022-11-28T23:43:57.948Z,0.55
2022-11-28T23:46:26.779Z,0.54
2022-11-28T23:48:54.705Z,0.55
2022-11-28T23:51:25.767Z,0.55
2022-11-28T23:53:54.065Z,0.55
2022-11-28T23:56:25.165Z,0.55
2022-11-28T23:58:55.076Z,0.56
